createdAt,value
2023-01-13T00:04:52.382Z,78.10
2023-01-13T00:09:59.563Z,78.14
2023-01-13T00:15:07.559Z,78.09
2023-01-13T00:20:13.775Z,78.26
2023-01-13T00:25:20.892Z,78.29
2023-01-13T00:30:28.142Z,78.30
2023-01-13T00:35:35.272Z,78.43
2023-01-13T00:40:42.511Z,78.57
2023-01-13T00:45:51.736Z,78.64
2023-01-13T00:51:00.076Z,78.65
2023-01-13T00:56:09.883Z,78.66
2023-01-13T01:01:20.595Z,78.83
2023-01-13T01:06:30.734Z,78.89
2023-01-13T01:11:38.044Z,79.01
2023-01-13T01:16:45.245Z,79.04
2023-01-13T01:21:52.521Z,79.01
2023-01-13T01:26:59.779Z,79.13
2023-01-13T01:32:07.561Z,79.18
2023-01-13T01:37:14.851Z,79.28
2023-01-13T01:42:41.341Z,79.38
2023-01-13T01:47:53.482Z,79.35
2023-01-13T01:53:07.361Z,79.38
2023-01-13T01:58:17.481Z,79.42
2023-01-13T02:03:24.883Z,79.44
2023-01-13T02:08:32.374Z,79.55
2023-01-13T02:13:39.616Z,79.61
2023-01-13T02:19:01.585Z,79.72
2023-01-13T02:24:52.861Z,79.63
2023-01-13T02:30:26.792Z,79.67
2023-01-13T02:35:41.455Z,79.81
2023-01-13T02:40:57.020Z,79.84
2023-01-13T02:46:10.489Z,79.89
2023-01-13T02:51:21.952Z,80.01
2023-01-13T02:56:30.361Z,80.04
2023-01-13T03:01:37.963Z,79.95
2023-01-13T03:06:54.907Z,80.05
2023-01-13T03:12:12.073Z,80.14
2023-01-13T03:17:30.046Z,80.12
2023-01-13T03:22:42.613Z,80.15
2023-01-13T03:27:54.121Z,80.24
2023-01-13T03:33:06.668Z,80.25
2023-01-13T03:38:18.705Z,80.40
2023-01-13T03:43:49.752Z,80.44
2023-01-13T03:48:59.923Z,80.61
2023-01-13T03:54:11.343Z,80.47
2023-01-13T03:59:21.318Z,80.42
2023-01-13T04:04:33.684Z,80.64
2023-01-13T04:09:49.969Z,80.61
2023-01-13T04:15:00.237Z,80.75
2023-01-13T04:20:08.812Z,80.64
2023-01-13T04:25:16.054Z,80.75
2023-01-13T04:30:23.616Z,80.84
2023-01-13T04:35:30.821Z,80.90
2023-01-13T04:40:38.097Z,80.93
2023-01-13T04:45:45.524Z,80.98
2023-01-13T04:50:52.755Z,80.94
2023-01-13T04:55:59.928Z,81.01
2023-01-13T05:01:07.130Z,80.94
2023-01-13T05:06:14.431Z,81.03
2023-01-13T05:11:38.583Z,81.02
2023-01-13T05:17:01.462Z,81.19
2023-01-13T05:22:26.367Z,81.07
2023-01-13T05:27:34.014Z,81.18
2023-01-13T05:32:39.872Z,81.22
2023-01-13T05:37:47.829Z,81.20
2023-01-13T05:43:21.741Z,81.20
2023-01-13T05:48:31.576Z,81.30
2023-01-13T05:53:41.011Z,81.26
2023-01-13T05:58:48.254Z,81.34
2023-01-13T06:03:55.425Z,81.32
2023-01-13T06:09:03.953Z,81.43
2023-01-13T06:14:11.654Z,81.32
2023-01-13T06:19:18.906Z,81.43
2023-01-13T06:24:26.357Z,81.38
2023-01-13T06:29:33.739Z,81.47
2023-01-13T06:34:43.220Z,81.42
2023-01-13T06:39:51.156Z,81.50
2023-01-13T06:44:56.821Z,81.46
2023-01-13T06:50:04.176Z,81.56
2023-01-13T06:55:12.236Z,81.49
2023-01-13T07:00:20.901Z,81.59
2023-01-13T07:05:28.239Z,81.56
2023-01-13T07:10:37.750Z,81.44
2023-01-13T07:15:53.433Z,81.48
2023-01-13T07:21:02.257Z,81.58
2023-01-13T07:26:10.791Z,81.50
2023-01-13T07:31:20.970Z,81.57
2023-01-13T07:36:28.288Z,81.55
2023-01-13T07:41:53.081Z,81.67
2023-01-13T07:47:01.247Z,81.61
2023-01-13T07:52:09.083Z,81.70
2023-01-13T07:57:16.173Z,81.67
2023-01-13T08:02:24.262Z,81.62
2023-01-13T08:07:32.220Z,81.69
2023-01-13T08:12:57.223Z,81.72
2023-01-13T08:18:04.659Z,81.65
2023-01-13T08:23:11.985Z,81.66
2023-01-13T08:28:19.683Z,81.66
2023-01-13T08:33:26.994Z,81.61
2023-01-13T08:38:34.572Z,81.81
2023-01-13T08:43:41.794Z,81.80
2023-01-13T08:48:49.017Z,81.84
2023-01-13T08:53:56.357Z,81.87
2023-01-13T08:59:03.600Z,81.83
2023-01-13T09:04:17.070Z,81.87
2023-01-13T09:09:27.067Z,81.94
2023-01-13T09:14:37.471Z,81.92
2023-01-13T09:19:44.708Z,81.85
2023-01-13T09:24:51.846Z,81.71
2023-01-13T09:29:59.002Z,81.67
2023-01-13T09:35:06.877Z,81.83
2023-01-13T09:40:16.999Z,81.86
2023-01-13T09:45:27.333Z,81.91
2023-01-13T09:50:51.515Z,81.93
2023-01-13T09:55:59.139Z,81.84
2023-01-13T10:01:17.641Z,81.69
2023-01-13T10:06:34.641Z,81.77
2023-01-13T10:12:04.329Z,81.74
2023-01-13T10:17:20.231Z,81.66
2023-01-13T10:22:46.906Z,81.49
2023-01-13T10:27:56.926Z,81.59
2023-01-13T10:33:11.695Z,81.49
2023-01-13T10:38:21.735Z,81.34
2023-01-13T10:43:30.604Z,81.29
2023-01-13T10:48:43.776Z,81.39
2023-01-13T10:53:55.208Z,81.27
2023-01-13T10:59:18.653Z,81.20
2023-01-13T11:04:36.282Z,81.20
2023-01-13T11:09:43.861Z,81.17
2023-01-13T11:14:50.311Z,81.38
2023-01-13T11:20:05.122Z,81.30
2023-01-13T11:25:17.667Z,81.21
2023-01-13T11:30:31.769Z,81.25
2023-01-13T11:35:43.323Z,81.27
2023-01-13T11:40:52.069Z,81.30
2023-01-13T11:46:02.452Z,81.50
2023-01-13T11:51:19.126Z,81.53
2023-01-13T11:56:42.878Z,81.82
2023-01-13T12:02:05.645Z,81.43
2023-01-13T12:07:22.181Z,81.30
2023-01-13T12:12:43.718Z,81.28
2023-01-13T12:18:02.637Z,81.39
2023-01-13T12:23:26.639Z,81.52
2023-01-13T12:28:44.899Z,81.33
2023-01-13T12:33:55.565Z,81.39
2023-01-13T12:39:14.828Z,81.35
2023-01-13T12:44:24.683Z,81.35
2023-01-13T12:49:34.635Z,81.39
2023-01-13T12:55:17.487Z,81.37
2023-01-13T13:00:25.715Z,81.24
2023-01-13T13:06:00.851Z,81.23
2023-01-13T13:11:38.505Z,81.20
2023-01-13T13:16:53.432Z,81.26
2023-01-13T13:22:31.579Z,81.14
2023-01-13T13:27:47.321Z,81.22
2023-01-13T13:33:10.159Z,81.22
2023-01-13T13:38:49.259Z,81.27
2023-01-13T13:44:21.778Z,81.50
2023-01-13T13:49:41.616Z,81.37
2023-01-13T13:54:52.163Z,81.35
2023-01-13T14:00:01.817Z,81.37
2023-01-13T14:05:24.772Z,81.51
2023-01-13T14:10:39.401Z,81.44
2023-01-13T14:15:47.535Z,81.45
2023-01-13T14:20:59.712Z,81.59
2023-01-13T14:26:13.129Z,81.62
2023-01-13T14:31:23.015Z,81.67
2023-01-13T14:36:39.802Z,81.55
2023-01-13T14:41:50.860Z,81.67
2023-01-13T14:47:01.565Z,81.80
2023-01-13T14:52:20.383Z,81.75
2023-01-13T14:57:31.517Z,81.62
2023-01-13T15:02:44.377Z,81.60
2023-01-13T15:07:54.803Z,81.63
2023-01-13T15:13:04.516Z,81.73
2023-01-13T15:18:15.194Z,81.66
2023-01-13T15:23:23.242Z,81.55
2023-01-13T15:28:33.192Z,81.56
2023-01-13T15:33:40.743Z,81.69
2023-01-13T15:38:55.437Z,81.58
2023-01-13T15:44:20.605Z,81.69
2023-01-13T15:49:35.000Z,81.56
2023-01-13T15:54:42.341Z,81.69
2023-01-13T15:59:50.051Z,81.68
2023-01-13T16:04:57.677Z,81.75
2023-01-13T16:10:05.789Z,81.76
2023-01-13T16:15:36.407Z,81.73
2023-01-13T16:20:44.005Z,81.75
2023-01-13T16:25:54.388Z,81.77
2023-01-13T16:31:17.827Z,81.82
2023-01-13T16:36:25.591Z,81.83
2023-01-13T16:41:34.764Z,81.85
2023-01-13T16:46:44.629Z,81.86
2023-01-13T16:51:51.854Z,81.81
2023-01-13T16:56:59.011Z,81.66
2023-01-13T17:02:12.919Z,81.87
2023-01-13T17:07:20.816Z,81.86
2023-01-13T17:12:28.201Z,81.86
2023-01-13T17:17:35.420Z,81.77
2023-01-13T17:22:45.605Z,81.72
2023-01-13T17:27:54.836Z,81.76
2023-01-13T17:33:02.578Z,81.77
2023-01-13T17:38:10.166Z,81.96
2023-01-13T17:43:17.486Z,81.84
2023-01-13T17:48:24.932Z,81.87
2023-01-13T17:53:32.387Z,81.81
2023-01-13T17:58:40.427Z,81.95
2023-01-13T18:03:48.255Z,81.86
2023-01-13T18:08:55.648Z,81.87
2023-01-13T18:14:02.978Z,81.79
2023-01-13T18:19:49.006Z,82.01
2023-01-13T18:25:14.806Z,82.01
2023-01-13T18:30:22.406Z,81.92
2023-01-13T18:35:30.381Z,82.07
2023-01-13T18:40:36.109Z,81.84
2023-01-13T18:45:43.725Z,81.98
2023-01-13T18:50:51.177Z,81.85
2023-01-13T18:55:58.528Z,81.86
2023-01-13T19:01:06.976Z,81.79
2023-01-13T19:06:14.998Z,81.93
2023-01-13T19:11:23.715Z,81.92
2023-01-13T19:16:31.037Z,82.04
2023-01-13T19:21:38.354Z,81.94
2023-01-13T19:26:48.865Z,81.90
2023-01-13T19:31:56.117Z,81.87
2023-01-13T19:37:04.030Z,81.90
2023-01-13T19:42:32.282Z,81.98
2023-01-13T19:47:40.838Z,82.02
2023-01-13T19:52:48.179Z,82.02
2023-01-13T19:57:55.443Z,82.02
2023-01-13T20:03:08.277Z,82.04
2023-01-13T20:08:15.810Z,82.01
2023-01-13T20:13:25.258Z,82.10
2023-01-13T20:18:36.699Z,82.08
2023-01-13T20:23:46.290Z,82.03
2023-01-13T20:28:53.953Z,82.06
2023-01-13T20:34:01.710Z,81.87
2023-01-13T20:39:14.426Z,81.92
2023-01-13T20:44:21.902Z,82.07
2023-01-13T20:49:30.587Z,82.02
2023-01-13T20:54:38.215Z,81.97
2023-01-13T20:59:45.507Z,82.03
2023-01-13T21:04:53.039Z,82.10
2023-01-13T21:10:00.372Z,82.02
2023-01-13T21:15:22.230Z,81.94
2023-01-13T21:20:34.065Z,82.16
2023-01-13T21:25:41.498Z,82.22
2023-01-13T21:30:50.348Z,82.07
2023-01-13T21:35:57.731Z,81.97
2023-01-13T21:41:07.924Z,81.90
2023-01-13T21:46:30.234Z,81.85
2023-01-13T21:51:37.921Z,82.08
2023-01-13T21:56:45.153Z,81.97
2023-01-13T22:02:12.382Z,81.96
2023-01-13T22:07:20.274Z,81.74
2023-01-13T22:12:28.111Z,81.82
2023-01-13T22:17:35.907Z,81.89
2023-01-13T22:22:43.682Z,81.80
2023-01-13T22:27:50.807Z,81.85
2023-01-13T22:32:58.079Z,81.84
2023-01-13T22:38:05.373Z,81.68
2023-01-13T22:43:12.606Z,81.57
2023-01-13T22:48:19.795Z,81.52
2023-01-13T22:53:27.073Z,81.51
2023-01-13T22:58:34.503Z,81.48
2023-01-13T23:03:42.104Z,81.54
2023-01-13T23:08:49.725Z,81.45
2023-01-13T23:14:00.801Z,81.53
2023-01-13T23:19:09.233Z,81.53
2023-01-13T23:24:16.385Z,81.42
2023-01-13T23:29:26.332Z,81.48
2023-01-13T23:34:33.735Z,81.45
2023-01-13T23:39:40.883Z,81.43
2023-01-13T23:44:48.455Z,81.42
2023-01-13T23:49:55.598Z,81.42
2023-01-13T23:55:02.845Z,81.50
